NY5V Weather Reports


Display with metric or nautical units.
time (UTC)temp
F
wind
direction
speed
MPH
gust
MPH
rain 1hr
in
rain 24hr
in
rain mn
in
humidity
%
barometer
mb
20240521233159 82 237 0.0 0.0 0.00 0.00 0.00 82 1008.4
20240521232159 82 267 0.0 0.0 0.00 0.00 0.00 82 1009.1
20240521231159 84 234 0.0 0.0 0.00 0.00 0.00 78 1010.1
20240521230158 85 241 1.0 1.0 0.00 0.00 0.00 75 1009.8
20240521225159 85 319 1.0 2.0 0.00 0.00 0.00 74 1009.8
20240521224158 85 227 1.0 1.0 0.00 0.00 0.00 74 1008.9
20240521223158 86 256 0.0 1.0 0.00 0.00 0.00 71 1009.7
20240521222156 86 239 3.0 4.0 0.00 0.00 0.00 72 1008.9
20240521221157 86 248 0.0 1.0 0.00 0.00 0.00 71 1008.4
20240521220155 87 254 1.0 2.0 0.00 0.00 0.00 71 1008.2
20240521215154 87 263 2.0 2.0 0.00 0.00 0.00 71 1008.3
20240521214153 87 272 4.0 4.0 0.00 0.00 0.00 68 1008.4
20240521213153 87 256 0.0 1.0 0.00 0.00 0.00 69 1008.4
20240521212152 87 224 2.0 4.0 0.00 0.00 0.00 72 1008.6
20240521211152 87 241 1.0 1.0 0.00 0.00 0.00 70 1009.0
20240521210152 87 211 3.0 4.0 0.00 0.00 0.00 71 1009.1
20240521205153 87 218 3.0 3.0 0.00 0.00 0.00 69 1009.1
20240521204151 87 250 3.0 4.0 0.00 0.00 0.00 66 1009.4
20240521203149 88 240 0.0 1.0 0.00 0.00 0.00 65 1009.7
20240521202149 87 225 2.0 2.0 0.00 0.00 0.00 67 1009.8
20240521201148 87 270 2.0 3.0 0.00 0.00 0.00 66 1009.8
20240521200147 87 294 2.0 2.0 0.00 0.00 0.00 67 1010.1
20240521195146 87 190 1.0 2.0 0.00 0.00 0.00 70 1010.2
20240521194145 86 238 2.0 2.0 0.00 0.00 0.00 72 1009.8
20240521193144 87 177 3.0 3.0 0.00 0.00 0.00 70 1010.1
20240521192142 87 234 3.0 6.0 0.00 0.00 0.00 69 1010.2
20240521191141 86 245 3.0 4.0 0.00 0.00 0.00 70 1010.4
20240521190140 86 251 1.0 1.0 0.00 0.00 0.00 70 1010.2
20240521185139 85 225 1.0 1.0 0.00 0.00 0.00 74 1010.1
20240521184138 85 236 1.0 2.0 0.00 0.00 0.00 74 1010.4
20240521183138 85 193 2.0 7.0 0.00 0.00 0.00 74 1010.4
20240521182136 83 240 2.0 4.0 0.00 0.00 0.00 76 1010.8
20240521181134 84 253 1.0 1.0 0.00 0.00 0.00 75 1010.6
20240521180133 85 272 1.0 1.0 0.00 0.00 0.00 74 1010.8
20240521175132 83 224 3.0 3.0 0.00 0.00 0.00 75 1010.7
20240521174131 84 253 3.0 3.0 0.00 0.00 0.00 77 1010.8
20240521173130 84 244 1.0 1.0 0.00 0.00 0.00 75 1010.9
20240521172129 83 241 4.0 6.0 0.00 0.00 0.00 77 1010.5
20240521171129 84 246 2.0 2.0 0.00 0.00 0.00 76 1010.6
20240521170127 83 241 1.0 2.0 0.00 0.00 0.00 77 1010.6
20240521165126 82 215 1.0 1.0 0.00 0.00 0.00 78 1010.5
20240521164124 83 245 0.0 1.0 0.00 0.00 0.00 78 1010.5
20240521163123 82 246 2.0 6.0 0.00 0.00 0.00 79 1010.6
20240521162122 82 242 2.0 3.0 0.00 0.00 0.00 79 1010.7
20240521161122 82 178 3.0 4.0 0.00 0.00 0.00 81 1010.6
20240521160123 81 237 3.0 4.0 0.00 0.00 0.00 81 1010.5
20240521155122 81 243 2.0 4.0 0.00 0.00 0.00 81 1010.5
20240521154123 81 186 3.0 6.0 0.00 0.00 0.00 82 1010.4
20240521153122 81 242 2.0 2.0 0.00 0.00 0.00 83 1010.3
20240521152120 80 256 2.0 3.0 0.00 0.00 0.00 83 1010.6
20240521151119 80 255 0.0 1.0 0.00 0.00 0.00 84 1010.6
20240521150120 79 321 2.0 3.0 0.00 0.00 0.00 85 1010.3
20240521145119 79 254 1.0 1.0 0.00 0.00 0.00 85 1010.4
20240521144117 79 278 0.0 1.0 0.00 0.00 0.00 86 1010.6
20240521143116 79 220 4.0 4.0 0.00 0.00 0.00 86 1010.6
20240521142114 78 165 8.0 10.0 0.00 0.00 0.00 86 1010.7
20240521141114 78 251 0.0 0.0 0.00 0.00 0.00 88 1010.5
20240521140114 77 325 1.0 1.0 0.00 0.00 0.00 89 1010.7
20240521135114 77 181 1.0 1.0 0.00 0.00 0.00 89 1010.6
20240521134112 77 184 1.0 2.0 0.00 0.00 0.00 90 1010.6
20240521133112 76 267 1.0 2.0 0.00 0.00 0.00 90 1010.3
20240521132112 76 249 2.0 2.0 0.00 0.00 0.00 90 1010.3
20240521131111 76 241 1.0 1.0 0.00 0.00 0.00 91 1010.1
20240521130111 76 236 2.0 2.0 0.00 0.00 0.00 91 1009.8
20240521125109 76 282 4.0 6.0 0.00 0.00 0.00 91 1009.7
20240521124107 76 351 0.0 0.0 0.00 0.00 0.00 91 1009.8
20240521123106 75 185 2.0 3.0 0.00 0.00 0.00 92 1009.9
20240521122106 75 243 0.0 0.0 0.00 0.00 0.00 92 1009.9
20240521121106 75 241 0.0 1.0 0.00 0.00 0.00 92 1009.7
20240521120104 75 238 1.0 2.0 0.00 0.00 0.00 92 1009.6
20240521115104 75 271 2.0 3.0 0.00 0.00 0.00 92 1009.6
20240521114103 74 257 1.0 2.0 0.00 0.00 0.00 92 1009.6
20240521113102 74 323 2.0 3.0 0.00 0.00 0.00 92 1009.6
20240521112101 74 241 0.0 1.0 0.00 0.00 0.00 92 1009.4
20240521111100 74 247 0.0 1.0 0.00 0.00 0.00 92 1009.4
20240521110058 74 265 0.0 0.0 0.00 0.00 0.00 92 1009.3
20240521105058 74 204 1.0 1.0 0.00 0.00 0.00 92 1009.5
20240521104056 74 240 0.0 0.0 0.00 0.00 0.00 91 1009.4
20240521103056 74 219 0.0 0.0 0.00 0.00 0.00 91 1009.5
20240521102055 74 244 1.0 2.0 0.00 0.00 0.00 91 1009.6
20240521101054 73 205 1.0 2.0 0.00 0.00 0.00 92 1009.4
20240521100053 73 238 0.0 0.0 0.00 0.00 0.00 92 1009.4
20240521095051 73 232 0.0 1.0 0.00 0.00 0.00 91 1009.1
20240521094053 74 241 1.0 1.0 0.00 0.00 0.00 91 1009.2
20240521093048 73 9 0.0 1.0 0.00 0.00 0.00 91 1009.1
20240521092048 74 248 0.0 1.0 0.00 0.00 0.00 91 1009.1
20240521091049 74 206 1.0 1.0 0.00 0.00 0.00 90 1009.4
20240521090048 73 219 2.0 3.0 0.00 0.00 0.00 91 1009.5
20240521085047 73 238 2.0 2.0 0.00 0.00 0.00 91 1009.5
20240521084047 73 239 2.0 3.0 0.00 0.00 0.00 91 1009.6
20240521083045 73 231 2.0 3.0 0.00 0.00 0.00 91 1009.4
20240521082045 73 189 2.0 3.0 0.00 0.00 0.00 91 1009.4
20240521081045 73 257 1.0 2.0 0.00 0.00 0.00 91 1009.5
20240521080045 73 206 1.0 1.0 0.00 0.00 0.00 90 1009.6
20240521075044 73 216 1.0 1.0 0.00 0.00 0.00 89 1009.6
20240521074043 74 221 2.0 3.0 0.00 0.00 0.00 88 1009.7
20240521073041 73 221 2.0 3.0 0.00 0.00 0.00 87 1009.6
20240521072040 74 264 1.0 1.0 0.00 0.00 0.00 87 1009.8
20240521071038 74 257 2.0 2.0 0.00 0.00 0.00 86 1009.9
20240521070037 74 253 0.0 0.0 0.00 0.00 0.00 85 1010.0
20240521065036 74 240 0.0 0.0 0.00 0.00 0.00 85 1010.0
20240521064035 74 257 0.0 1.0 0.00 0.00 0.00 84 1010.0
20240521063036 75 257 0.0 0.0 0.00 0.00 0.00 84 1010.3
20240521062036 75 222 1.0 3.0 0.00 0.00 0.00 83 1010.5
20240521061035 75 256 0.0 1.0 0.00 0.00 0.00 81 1010.3
20240521060034 76 208 2.0 2.0 0.00 0.00 0.00 80 1010.2
20240521055032 76 260 1.0 1.0 0.00 0.00 0.00 79 1010.3
20240521054032 76 245 0.0 0.0 0.00 0.00 0.00 77 1010.2
20240521053033 77 244 0.0 1.0 0.00 0.00 0.00 76 1010.3
20240521052031 77 149 2.0 2.0 0.00 0.00 0.00 75 1010.1
20240521051031 77 244 1.0 2.0 0.00 0.00 0.00 74 1010.1
20240521050031 77 197 1.0 1.0 0.00 0.00 0.00 74 1010.3
20240521045032 77 225 2.0 3.0 0.00 0.00 0.00 73 1010.4
20240521044031 77 246 0.0 0.0 0.00 0.00 0.00 73 1010.7
20240521043029 77 231 0.0 1.0 0.00 0.00 0.00 73 1010.8
20240521042028 77 229 3.0 6.0 0.00 0.00 0.00 71 1010.5
20240521041026 77 246 0.0 0.0 0.00 0.00 0.00 72 1010.3
20240521040024 77 264 0.0 0.0 0.00 0.00 0.00 72 1010.4
20240521035023 77 239 0.0 0.0 0.00 0.00 0.00 71 1010.3
20240521034021 78 241 0.0 1.0 0.00 0.00 0.00 71 1010.3
20240521033019 78 259 0.0 1.0 0.00 0.00 0.00 70 1010.5
20240521032017 78 242 0.0 0.0 0.00 0.00 0.00 70 1010.3
20240521031017 78 248 0.0 0.0 0.00 0.00 0.00 72 1010.0
20240521030016 78 242 0.0 0.0 0.00 0.00 0.00 71 1010.1
20240521025015 78 256 0.0 0.0 0.00 0.00 0.00 72 1009.9
20240521024013 78 250 0.0 0.0 0.00 0.00 0.00 73 1010.0
20240521023011 78 250 0.0 0.0 0.00 0.00 0.00 72 1010.0
20240521022010 78 255 0.0 0.0 0.00 0.00 0.00 71 1009.6
20240521021008 79 253 0.0 0.0 0.00 0.00 0.00 70 1009.9
20240521020007 79 249 0.0 0.0 0.00 0.00 0.00 69 1009.8
20240521015006 79 251 0.0 0.0 0.00 0.00 0.00 68 1009.5
20240521014004 80 258 0.0 0.0 0.00 0.00 0.00 66 1009.8
20240521013003 80 257 0.0 0.0 0.00 0.00 0.00 64 1009.8
20240521012001 81 250 0.0 0.0 0.00 0.00 0.00 62 1010.0
20240521011001 82 246 0.0 0.0 0.00 0.00 0.00 61 1010.0
20240521010000 82 213 1.0 1.0 0.00 0.00 0.00 59 1009.8
20240521004959 83 225 2.0 2.0 0.00 0.00 0.00 59 1009.8
20240521003959 84 248 0.0 0.0 0.00 0.00 0.00 59 1009.6
20240521002959 84 287 0.0 1.0 0.00 0.00 0.00 57 1009.6
20240521001958 84 256 0.0 0.0 0.00 0.00 0.00 58 1009.6
20240521000958 85 246 0.0 0.0 0.00 0.00 0.00 57 1009.5
20240520235958 85 226 1.0 1.0 0.00 0.00 0.00 57 1009.5
20240520234957 86 267 0.0 0.0 0.00 0.00 0.00 56 1009.6
20240520233956 86 311 1.0 2.0 0.00 0.00 0.00 54 1009.6